createdAt,value
2022-10-05T00:02:14.424Z,5.65
2022-10-05T00:05:29.258Z,6.70
2022-10-05T00:08:33.477Z,5.93
2022-10-05T00:11:35.057Z,6.20
2022-10-05T00:14:36.943Z,5.53
2022-10-05T00:17:38.754Z,8.00
2022-10-05T00:20:41.386Z,7.70
2022-10-05T00:23:43.008Z,6.68
2022-10-05T00:26:45.100Z,6.78
2022-10-05T00:29:48.281Z,7.15
2022-10-05T00:32:50.312Z,6.28
2022-10-05T00:35:51.937Z,6.97
2022-10-05T00:38:54.264Z,5.90
2022-10-05T00:41:58.606Z,6.07
2022-10-05T00:45:10.169Z,5.18
2022-10-05T00:48:17.520Z,5.78
2022-10-05T00:51:31.329Z,5.45
2022-10-05T00:54:53.512Z,6.28
2022-10-05T00:58:31.448Z,6.63
2022-10-05T01:01:58.145Z,6.05
2022-10-05T01:05:39.825Z,6.20
2022-10-05T01:08:44.570Z,5.18
2022-10-05T01:11:52.267Z,5.70
2022-10-05T01:14:59.749Z,5.13
2022-10-05T01:18:27.761Z,4.80
2022-10-05T01:21:35.350Z,4.88
2022-10-05T01:24:55.389Z,5.40
2022-10-05T01:28:56.413Z,6.38
2022-10-05T01:32:23.794Z,5.78
2022-10-05T01:36:00.491Z,5.68
2022-10-05T01:39:20.756Z,6.03
2022-10-05T01:42:25.042Z,5.50
2022-10-05T01:45:35.437Z,4.85
2022-10-05T01:48:39.638Z,4.97
2022-10-05T01:51:59.779Z,5.95
2022-10-05T01:55:13.198Z,5.50
2022-10-05T01:58:29.986Z,4.78
2022-10-05T02:01:34.462Z,5.47
2022-10-05T02:05:06.490Z,5.45
2022-10-05T02:08:18.847Z,4.78
2022-10-05T02:11:20.614Z,4.93
2022-10-05T02:17:56.366Z,5.00
2022-10-05T02:20:59.525Z,5.40
2022-10-05T02:24:06.858Z,5.25
2022-10-05T02:27:11.031Z,5.43
2022-10-05T02:30:16.625Z,5.43
2022-10-05T02:33:33.016Z,5.05
2022-10-05T02:36:40.514Z,5.30
2022-10-05T02:39:42.497Z,6.50
2022-10-05T02:43:04.332Z,5.50
2022-10-05T02:46:57.187Z,4.28
2022-10-05T02:50:13.641Z,5.80
2022-10-05T02:53:39.995Z,6.07
2022-10-05T02:56:50.051Z,5.25
2022-10-05T03:00:08.110Z,5.18
2022-10-05T03:03:28.154Z,5.05
2022-10-05T03:06:38.169Z,5.75
2022-10-05T03:09:48.003Z,5.28
2022-10-05T03:13:14.524Z,5.45
2022-10-05T03:16:40.831Z,5.10
2022-10-05T03:19:55.007Z,5.38
2022-10-05T03:23:04.863Z,6.72
2022-10-05T03:26:31.331Z,5.90
2022-10-05T03:29:37.602Z,6.13
2022-10-05T03:32:54.708Z,6.95
2022-10-05T03:36:05.847Z,5.38
2022-10-05T03:39:30.619Z,6.05
2022-10-05T03:42:48.565Z,5.75
2022-10-05T03:46:02.176Z,5.53
2022-10-05T03:49:18.600Z,5.88
2022-10-05T03:52:39.557Z,6.07
2022-10-05T03:55:54.067Z,5.55
2022-10-05T03:59:20.301Z,5.53
2022-10-05T04:02:28.331Z,4.80
2022-10-05T04:05:38.007Z,5.60
2022-10-05T04:08:43.038Z,5.70
2022-10-05T04:12:24.157Z,5.45
2022-10-05T04:15:29.800Z,5.90
2022-10-05T04:18:40.094Z,6.43
2022-10-05T04:21:56.123Z,5.45
2022-10-05T04:25:17.874Z,6.05
2022-10-05T04:28:32.582Z,6.53
2022-10-05T04:32:10.373Z,5.35
2022-10-05T04:35:47.191Z,5.80
2022-10-05T04:39:10.440Z,4.80
2022-10-05T04:42:30.877Z,4.93
2022-10-05T04:46:10.757Z,5.47
2022-10-05T04:49:34.398Z,5.70
2022-10-05T04:52:57.850Z,5.78
2022-10-05T04:56:20.468Z,5.35
2022-10-05T04:59:44.627Z,6.43
2022-10-05T05:02:49.106Z,6.35
2022-10-05T05:06:32.443Z,8.68
2022-10-05T05:09:59.497Z,6.78
2022-10-05T05:13:22.582Z,8.55
2022-10-05T05:16:45.703Z,6.82
2022-10-05T05:20:22.932Z,6.50
2022-10-05T05:23:41.538Z,6.90
2022-10-05T05:27:21.767Z,6.30
2022-10-05T05:30:26.628Z,5.95
2022-10-05T05:34:22.397Z,6.35
2022-10-05T05:37:46.908Z,5.47
2022-10-05T05:41:08.236Z,5.78
2022-10-05T05:44:23.666Z,6.00
2022-10-05T05:47:35.323Z,5.07
2022-10-05T05:51:03.533Z,5.90
2022-10-05T05:54:32.137Z,5.70
2022-10-05T05:57:33.852Z,5.25
2022-10-05T06:00:59.742Z,5.80
2022-10-05T06:04:03.602Z,5.70
2022-10-05T06:07:06.281Z,5.68
2022-10-05T06:13:27.531Z,5.75
2022-10-05T06:16:41.791Z,5.47
2022-10-05T06:19:46.294Z,6.05
2022-10-05T06:22:49.775Z,6.18
2022-10-05T06:29:22.901Z,4.95
2022-10-05T06:32:57.429Z,5.70
2022-10-05T06:36:20.909Z,5.40
2022-10-05T06:39:48.549Z,5.82
2022-10-05T06:43:14.954Z,5.40
2022-10-05T06:46:50.515Z,5.20
2022-10-05T06:50:38.517Z,6.43
2022-10-05T06:54:13.886Z,5.65
2022-10-05T06:57:39.024Z,6.15
2022-10-05T07:01:18.254Z,6.35
2022-10-05T07:04:50.925Z,6.13
2022-10-05T07:08:00.717Z,5.93
2022-10-05T07:11:29.337Z,5.97
2022-10-05T07:14:54.080Z,5.45
2022-10-05T07:18:04.815Z,6.22
2022-10-05T07:21:31.095Z,6.25
2022-10-05T07:24:51.920Z,6.10
2022-10-05T07:28:04.745Z,6.03
2022-10-05T07:31:13.770Z,6.30
2022-10-05T07:34:25.248Z,5.60
2022-10-05T07:37:54.849Z,5.63
2022-10-05T07:41:13.502Z,5.83
2022-10-05T07:44:22.898Z,5.85
2022-10-05T07:47:39.623Z,5.90
2022-10-05T07:51:06.603Z,6.18
2022-10-05T07:54:30.976Z,6.40
2022-10-05T07:57:45.035Z,6.63
2022-10-05T08:00:59.627Z,6.68
2022-10-05T08:04:03.336Z,6.88
2022-10-05T08:07:15.793Z,7.43
2022-10-05T08:10:28.958Z,7.50
2022-10-05T08:13:55.849Z,8.15
2022-10-05T08:17:02.388Z,7.35
2022-10-05T08:20:16.664Z,6.55
2022-10-05T08:23:25.670Z,7.20
2022-10-05T08:26:44.912Z,7.55
2022-10-05T08:30:02.021Z,7.05
2022-10-05T08:33:10.452Z,6.65
2022-10-05T08:36:14.533Z,7.35
2022-10-05T08:39:21.024Z,7.35
2022-10-05T08:42:31.663Z,6.78
2022-10-05T08:46:05.685Z,7.53
2022-10-05T08:49:35.183Z,6.50
2022-10-05T08:52:59.260Z,7.28
2022-10-05T08:56:28.850Z,7.13
2022-10-05T08:59:58.760Z,7.88
2022-10-05T09:03:19.275Z,7.50
2022-10-05T09:06:50.478Z,8.35
2022-10-05T09:10:02.037Z,7.70
2022-10-05T09:13:33.531Z,6.72
2022-10-05T09:16:53.153Z,4.70
2022-10-05T09:20:16.797Z,4.50
2022-10-05T09:23:32.033Z,4.50
2022-10-05T09:27:00.101Z,4.85
2022-10-05T09:30:18.159Z,4.40
2022-10-05T09:33:42.744Z,3.35
2022-10-05T09:37:28.335Z,3.85
2022-10-05T09:40:44.536Z,3.15
2022-10-05T09:44:13.884Z,3.10
2022-10-05T09:47:28.993Z,3.25
2022-10-05T09:50:42.794Z,3.17
2022-10-05T09:54:05.248Z,3.35
2022-10-05T09:57:22.123Z,2.90
2022-10-05T10:00:59.496Z,2.70
2022-10-05T10:04:52.063Z,3.17
2022-10-05T10:08:30.775Z,3.00
2022-10-05T10:12:02.040Z,3.10
2022-10-05T10:15:03.805Z,2.70
2022-10-05T10:18:36.251Z,2.58
2022-10-05T10:22:05.485Z,2.50
2022-10-05T10:25:35.071Z,2.58
2022-10-05T10:29:15.064Z,2.28
2022-10-05T10:32:22.571Z,2.45
2022-10-05T10:35:39.785Z,2.13
2022-10-05T10:38:53.736Z,2.13
2022-10-05T10:41:55.265Z,2.15
2022-10-05T10:45:12.674Z,2.00
2022-10-05T10:48:29.290Z,2.08
2022-10-05T10:51:57.207Z,2.03
2022-10-05T10:55:19.426Z,2.05
2022-10-05T10:58:34.932Z,2.00
2022-10-05T11:02:14.337Z,2.00
2022-10-05T11:05:34.862Z,1.77
2022-10-05T11:09:03.886Z,1.95
2022-10-05T11:12:21.956Z,1.80
2022-10-05T11:15:57.621Z,2.20
2022-10-05T11:19:35.036Z,1.90
2022-10-05T11:23:19.867Z,2.17
2022-10-05T11:26:52.241Z,1.70
2022-10-05T11:30:13.450Z,2.05
2022-10-05T11:33:34.088Z,2.20
2022-10-05T11:37:03.832Z,2.03
2022-10-05T11:40:34.109Z,2.08
2022-10-05T11:44:13.510Z,2.00
2022-10-05T11:47:31.671Z,2.03
2022-10-05T11:50:53.551Z,2.30
2022-10-05T11:54:01.274Z,2.50
2022-10-05T11:57:20.017Z,2.20
2022-10-05T12:00:25.662Z,2.40
2022-10-05T12:03:38.580Z,2.45
2022-10-05T12:10:31.238Z,2.60
2022-10-05T12:13:51.224Z,2.80
2022-10-05T12:16:59.240Z,3.17
2022-10-05T12:20:29.390Z,2.65
2022-10-05T12:23:43.335Z,2.80
2022-10-05T12:26:56.360Z,3.38
2022-10-05T12:33:31.411Z,3.30
2022-10-05T12:37:03.047Z,3.22
2022-10-05T12:40:16.647Z,3.42
2022-10-05T12:43:55.835Z,3.20
2022-10-05T12:47:28.523Z,2.95
2022-10-05T12:50:33.248Z,3.22
2022-10-05T12:53:51.888Z,3.10
2022-10-05T12:57:05.923Z,3.67
2022-10-05T13:00:22.998Z,3.30
2022-10-05T13:03:30.958Z,4.00
2022-10-05T13:06:43.995Z,3.40
2022-10-05T13:10:02.629Z,3.45
2022-10-05T13:13:19.506Z,3.30
2022-10-05T13:16:26.773Z,3.25
2022-10-05T13:19:47.809Z,3.50
2022-10-05T13:23:12.827Z,3.40
2022-10-05T13:26:19.274Z,3.40
2022-10-05T13:29:26.036Z,3.63
2022-10-05T13:32:35.870Z,3.55
2022-10-05T13:35:57.826Z,3.60
2022-10-05T13:39:31.680Z,3.22
2022-10-05T13:42:43.174Z,3.22
2022-10-05T13:46:06.918Z,3.08
2022-10-05T13:49:17.550Z,2.90
2022-10-05T13:52:33.956Z,2.90
2022-10-05T13:56:17.667Z,2.70
2022-10-05T13:59:30.519Z,2.80
2022-10-05T14:02:40.099Z,3.13
2022-10-05T14:05:57.457Z,3.30
2022-10-05T14:08:59.945Z,3.53
2022-10-05T14:12:04.385Z,3.53
2022-10-05T14:15:22.956Z,3.05
2022-10-05T14:18:27.429Z,3.05
2022-10-05T14:21:30.602Z,3.33
2022-10-05T14:24:44.744Z,3.33
2022-10-05T14:27:59.040Z,3.30
2022-10-05T14:31:11.226Z,3.00
2022-10-05T14:34:39.293Z,3.55
2022-10-05T14:37:58.201Z,3.10
2022-10-05T14:41:16.344Z,3.15
2022-10-05T14:48:00.300Z,2.72
2022-10-05T14:51:05.211Z,3.33
2022-10-05T14:54:25.209Z,3.22
2022-10-05T14:57:44.995Z,3.10
2022-10-05T15:00:56.989Z,3.00
2022-10-05T15:04:14.060Z,2.83
2022-10-05T15:07:31.062Z,3.22
2022-10-05T15:10:49.966Z,3.20
2022-10-05T15:13:52.565Z,3.17
2022-10-05T15:16:58.740Z,3.40
2022-10-05T15:20:17.825Z,2.80
2022-10-05T15:23:42.814Z,2.85
2022-10-05T15:26:54.520Z,2.92
2022-10-05T15:30:18.252Z,2.58
2022-10-05T15:33:29.687Z,2.60
2022-10-05T15:36:36.181Z,2.95
2022-10-05T15:39:51.334Z,2.97
2022-10-05T15:42:58.485Z,2.80
2022-10-05T15:46:28.888Z,2.80
2022-10-05T15:49:46.788Z,2.85
2022-10-05T15:53:22.120Z,3.10
2022-10-05T15:56:33.863Z,2.88
2022-10-05T15:59:50.801Z,3.30
2022-10-05T16:03:17.272Z,2.90
2022-10-05T16:06:56.836Z,2.95
2022-10-05T16:10:07.059Z,3.58
2022-10-05T16:13:24.340Z,3.30
2022-10-05T16:16:49.395Z,3.70
2022-10-05T16:20:17.792Z,3.63
2022-10-05T16:23:31.679Z,4.10
2022-10-05T16:26:43.496Z,3.35
2022-10-05T16:30:08.995Z,4.35
2022-10-05T16:33:17.812Z,4.97
2022-10-05T16:36:47.893Z,4.55
2022-10-05T16:40:01.865Z,5.65
2022-10-05T16:43:23.364Z,4.78
2022-10-05T16:46:37.039Z,4.20
2022-10-05T16:50:23.149Z,4.43
2022-10-05T16:53:34.217Z,4.07
2022-10-05T16:56:44.220Z,4.60
2022-10-05T17:00:10.839Z,4.13
2022-10-05T17:03:34.615Z,4.20
2022-10-05T17:07:02.943Z,4.40
2022-10-05T17:10:23.524Z,4.55
2022-10-05T17:17:15.874Z,4.88
2022-10-05T17:20:23.789Z,5.15
2022-10-05T17:23:32.154Z,4.88
2022-10-05T17:26:42.367Z,4.10
2022-10-05T17:29:50.045Z,4.03
2022-10-05T17:33:17.563Z,3.80
2022-10-05T17:36:19.185Z,4.00
2022-10-05T17:39:50.896Z,4.32
2022-10-05T17:43:14.547Z,4.63
2022-10-05T17:46:38.774Z,6.72
2022-10-05T17:50:18.489Z,7.10
2022-10-05T17:54:13.721Z,6.03
2022-10-05T17:57:21.311Z,6.32
2022-10-05T18:00:34.648Z,9.13
2022-10-05T18:03:43.683Z,10.50
2022-10-05T18:06:58.775Z,14.25
2022-10-05T18:10:29.202Z,11.15
2022-10-05T18:13:37.004Z,9.88
2022-10-05T18:16:59.348Z,10.05
2022-10-05T18:20:31.925Z,7.18
2022-10-05T18:23:36.276Z,7.60
2022-10-05T18:26:43.561Z,7.60
2022-10-05T18:30:08.685Z,8.25
2022-10-05T18:33:33.037Z,8.48
2022-10-05T18:37:11.473Z,9.57
2022-10-05T18:40:37.412Z,8.75
2022-10-05T18:43:53.855Z,9.50
2022-10-05T18:47:06.390Z,8.65
2022-10-05T18:50:31.574Z,10.40
2022-10-05T18:53:45.072Z,13.90
2022-10-05T18:56:52.952Z,7.88
2022-10-05T19:00:01.984Z,7.28
2022-10-05T19:03:15.291Z,10.35
2022-10-05T19:06:46.099Z,9.45
2022-10-05T19:10:11.517Z,7.55
2022-10-05T19:13:21.903Z,8.43
2022-10-05T19:16:47.876Z,9.23
2022-10-05T19:19:58.927Z,8.85
2022-10-05T19:23:08.724Z,9.13
2022-10-05T19:26:42.693Z,9.15
2022-10-05T19:30:03.555Z,9.93
2022-10-05T19:33:33.608Z,10.73
2022-10-05T19:36:49.515Z,11.45
2022-10-05T19:40:09.693Z,10.60
2022-10-05T19:43:50.486Z,9.63
2022-10-05T19:47:01.403Z,9.98
2022-10-05T19:50:21.061Z,9.10
2022-10-05T19:53:44.192Z,9.80
2022-10-05T19:56:52.690Z,5.28
2022-10-05T19:59:56.758Z,4.50
2022-10-05T20:03:11.966Z,3.90
2022-10-05T20:06:13.663Z,4.13
2022-10-05T20:09:20.867Z,4.22
2022-10-05T20:12:23.023Z,5.28
2022-10-05T20:15:49.724Z,4.90
2022-10-05T20:22:46.203Z,6.18
2022-10-05T20:26:07.554Z,7.03
2022-10-05T20:29:09.421Z,5.47
2022-10-05T20:32:13.191Z,4.65
2022-10-05T20:35:16.442Z,4.45
2022-10-05T20:38:17.957Z,4.47
2022-10-05T20:41:19.490Z,8.07
2022-10-05T20:44:21.166Z,8.85
2022-10-05T20:47:23.082Z,7.55
2022-10-05T20:50:24.608Z,7.50
2022-10-05T20:53:26.135Z,6.00
2022-10-05T20:56:27.687Z,5.03
2022-10-05T20:59:29.189Z,4.20
2022-10-05T21:02:30.711Z,3.80
2022-10-05T21:05:32.313Z,4.03
2022-10-05T21:08:36.186Z,3.80
2022-10-05T21:11:39.665Z,3.72
2022-10-05T21:14:41.235Z,4.10
2022-10-05T21:17:45.530Z,4.25
2022-10-05T21:20:50.503Z,3.88
2022-10-05T21:23:52.068Z,3.90
2022-10-05T21:26:56.776Z,4.32
2022-10-05T21:29:58.308Z,3.70
2022-10-05T21:32:59.867Z,3.90
2022-10-05T21:36:02.098Z,4.18
2022-10-05T21:39:04.865Z,4.05
2022-10-05T21:42:06.444Z,3.92
2022-10-05T21:45:08.565Z,3.22
2022-10-05T21:48:11.157Z,3.53
2022-10-05T21:51:16.598Z,3.70
2022-10-05T21:54:20.981Z,3.63
2022-10-05T21:57:22.713Z,3.28
2022-10-05T22:00:24.202Z,3.40
2022-10-05T22:03:25.773Z,3.60
2022-10-05T22:06:27.374Z,3.78
2022-10-05T22:09:28.895Z,3.47
2022-10-05T22:12:30.411Z,3.10
2022-10-05T22:15:31.995Z,3.17
2022-10-05T22:18:33.506Z,3.60
2022-10-05T22:21:41.488Z,3.45
2022-10-05T22:24:43.055Z,3.35
2022-10-05T22:27:44.630Z,3.53
2022-10-05T22:30:46.304Z,3.50
2022-10-05T22:33:47.917Z,3.30
2022-10-05T22:36:49.942Z,3.22
2022-10-05T22:39:51.589Z,2.95
2022-10-05T22:42:53.222Z,3.33
2022-10-05T22:45:55.488Z,3.20
2022-10-05T22:48:57.060Z,3.00
2022-10-05T22:51:58.598Z,3.00
2022-10-05T22:55:00.225Z,3.75
2022-10-05T22:58:01.994Z,3.05
2022-10-05T23:01:05.815Z,2.80
2022-10-05T23:04:08.797Z,3.25
2022-10-05T23:07:10.368Z,2.75
2022-10-05T23:10:14.909Z,2.90
2022-10-05T23:13:16.487Z,3.05
2022-10-05T23:16:20.632Z,2.70
2022-10-05T23:19:23.602Z,3.03
2022-10-05T23:22:25.537Z,2.88
2022-10-05T23:25:27.077Z,2.55
2022-10-05T23:28:29.458Z,2.80
2022-10-05T23:31:32.250Z,2.97
2022-10-05T23:34:34.119Z,2.78
2022-10-05T23:37:40.700Z,2.70
2022-10-05T23:41:03.866Z,2.60
2022-10-05T23:44:05.455Z,2.67
2022-10-05T23:47:07.068Z,2.72
2022-10-05T23:50:09.266Z,2.70
2022-10-05T23:53:10.913Z,2.80
2022-10-05T23:56:12.940Z,3.40
2022-10-05T23:59:14.459Z,2.95
